Time;durP1;ratioP1;P1;durP2;ratioP2;P2;SDS_P1;SDS_P2;PMS_P1;PMS_P2;Temp;Humidity;BMP_temperature;BMP_pressure;BME280_temperature;BME280_humidity;BME280_pressure;Samples;Min_cycle;Max_cycle;Signal;HPM_P1;HPM_P2
2021/03/22 00:01:06;;;;;;;;;;;;;;;9.76;36.02;101401.47;4843750;29;19991;-75
2021/03/22 00:03:37;;;;;;;;;;;;;;;9.73;36.61;101405.91;4843543;29;20442;-76
2021/03/22 00:06:07;;;;;;;;;;;;;;;9.70;36.48;101408.59;4843199;29;19928;-76
2021/03/22 00:08:37;;;;;;;;;;;;;;;9.67;36.34;101401.59;4843666;29;19929;-76
2021/03/22 00:11:07;;;;;;;;;;;;;;;9.63;36.65;101408.66;4843758;29;20413;-75
2021/03/22 00:13:38;;;;;;;;;;;;;;;9.62;36.63;101400.75;4843268;29;20348;-75
2021/03/22 00:16:07;;;;;;;;;;;;;;;9.60;36.49;101402.53;4843148;29;20390;-76
2021/03/22 00:18:39;;;;;;;;;;;;;;;9.55;37.10;101402.63;4842946;29;19961;-76
2021/03/22 00:21:09;;;;;;;;;;;;;;;9.53;36.46;101404.38;4842849;29;20283;-75
2021/03/22 00:23:40;;;;;;;;;;;;;;;9.50;36.74;101411.50;4843481;29;20399;-76
2021/03/22 00:26:10;;;;;;;;;;;;;;;9.46;36.50;101408.88;4843753;29;20368;-76
2021/03/22 00:28:40;;;;;;;;;;;;;;;9.43;36.73;101408.06;4842059;29;20378;-76
2021/03/22 00:31:10;;;;;;;;;;;;;;;9.41;36.35;101409.84;4843095;29;20509;-76
2021/03/22 00:37:21;;;;;;;;;;;;;;;9.31;36.64;101398.50;4843317;29;19935;-75
2021/03/22 00:39:51;;;;;;;;;;;;;;;9.27;36.48;101410.88;4842810;29;19928;-75
2021/03/22 00:42:22;;;;;;;;;;;;;;;9.25;37.13;101404.72;4843310;29;20358;-75
2021/03/22 00:44:52;;;;;;;;;;;;;;;9.22;37.05;101402.13;4842731;29;20375;-75
2021/03/22 00:51:12;;;;;;;;;;;;;;;9.13;36.63;101402.22;4842993;29;19930;-76
2021/03/22 00:53:41;;;;;;;;;;;;;;;9.09;37.03;101405.81;4842944;29;20388;-76
2021/03/22 00:56:10;;;;;;;;;;;;;;;9.07;37.29;101400.50;4842607;29;20435;-75
2021/03/22 00:58:43;;;;;;;;;;;;;;;9.04;37.15;101404.97;4842211;29;20377;-75
2021/03/22 01:01:12;;;;;;;;;;;;;;;9.00;37.29;101397.97;4842681;29;19929;-75
2021/03/22 01:03:42;;;;;;;;;;;;;;;8.98;37.02;101395.34;4842569;29;19932;-76
2021/03/22 01:06:13;;;;;;;;;;;;;;;8.95;37.20;101390.97;4842727;29;19932;-75
2021/03/22 01:08:43;;;;;;;;;;;;;;;8.92;36.95;101398.06;4842647;29;20405;-76
2021/03/22 01:11:13;;;;;;;;;;;;;;;8.89;37.02;101403.34;4842213;29;19959;-76
2021/03/22 01:13:44;;;;;;;;;;;;;;;8.85;36.96;101394.59;4841932;29;20375;-76
2021/03/22 01:16:20;;;;;;;;;;;;;;;8.83;37.25;101400.78;4842302;29;19936;-76
2021/03/22 01:23:27;;;;;;;;;;;;;;;8.74;37.07;101407.03;4786695;29;19951;-76
2021/03/22 01:25:56;;;;;;;;;;;;;;;8.72;37.60;101407.03;4785707;30;20473;-76
2021/03/22 01:32:08;;;;;;;;;;;;;;;8.64;37.02;101414.13;4785959;30;19932;-76
2021/03/22 01:34:38;;;;;;;;;;;;;;;8.60;37.42;101412.41;4785254;29;20376;-76
2021/03/22 01:37:08;;;;;;;;;;;;;;;8.57;37.12;101410.66;4785632;30;20383;-75
2021/03/22 01:39:38;;;;;;;;;;;;;;;8.55;37.68;101406.28;4785485;30;20359;-75
2021/03/22 01:42:15;;;;;;;;;;;;;;;8.53;37.18;101397.53;4785147;30;20399;-75
2021/03/22 01:44:46;;;;;;;;;;;;;;;8.50;37.86;101395.81;4785567;30;20399;-75
2021/03/22 01:47:18;;;;;;;;;;;;;;;8.49;37.93;101399.31;4785786;30;19929;-76
2021/03/22 01:49:50;;;;;;;;;;;;;;;8.46;37.47;101402.00;4812117;29;20449;-75
2021/03/22 01:52:21;;;;;;;;;;;;;;;8.43;37.50;101410.75;4842193;29;20370;-75
2021/03/22 01:54:52;;;;;;;;;;;;;;;8.40;37.39;101410.78;4841410;29;20416;-75
2021/03/22 02:08:44;;;;;;;;;;;;;;;8.25;37.50;101417.03;4817629;29;19951;-75
2021/03/22 02:11:17;;;;;;;;;;;;;;;8.22;37.90;101414.44;4823803;29;20290;-75
2021/03/22 02:17:31;;;;;;;;;;;;;;;8.16;37.80;101411.84;4823194;29;20011;-75
2021/03/22 02:20:15;;;;;;;;;;;;;;;8.14;37.65;101405.69;4823404;29;20412;-75
2021/03/22 02:26:52;;;;;;;;;;;;;;;8.06;37.98;101397.81;4841783;29;20393;-75
2021/03/22 02:29:34;;;;;;;;;;;;;;;8.02;37.85;101404.00;4841787;29;19967;-75
2021/03/22 02:32:13;;;;;;;;;;;;;;;7.98;37.92;101399.66;4841682;29;20298;-75
2021/03/22 02:34:47;;;;;;;;;;;;;;;7.96;37.96;101398.81;4841293;29;20386;-75
2021/03/22 02:41:09;;;;;;;;;;;;;;;7.88;38.37;101414.66;4841790;29;20351;-75
2021/03/22 02:43:39;;;;;;;;;;;;;;;7.88;37.95;101416.38;4841653;29;20363;-75
2021/03/22 02:46:09;;;;;;;;;;;;;;;7.85;38.28;101416.41;4841656;29;19928;-75
2021/03/22 02:48:40;;;;;;;;;;;;;;;7.82;38.36;101409.41;4841393;29;20417;-75
2021/03/22 02:51:18;;;;;;;;;;;;;;;7.79;38.28;101407.66;4841052;29;19932;-75
2021/03/22 02:54:47;;;;;;;;;;;;;;;7.75;38.41;101403.28;4835769;29;20265;-75
2021/03/22 02:58:07;;;;;;;;;;;;;;;7.71;38.55;101406.84;4845060;29;20031;-75
2021/03/22 03:00:59;;;;;;;;;;;;;;;7.69;38.63;101413.00;4844860;29;19935;-75
2021/03/22 03:03:29;;;;;;;;;;;;;;;7.68;38.27;101417.34;4844866;29;19932;-75
2021/03/22 03:05:59;;;;;;;;;;;;;;;7.65;38.12;101420.03;4844147;29;20407;-75
2021/03/22 03:08:32;;;;;;;;;;;;;;;7.61;38.51;101416.50;4844407;29;19933;-75
2021/03/22 03:11:03;;;;;;;;;;;;;;;7.61;38.16;101415.66;4844755;29;19935;-75
2021/03/22 03:13:32;;;;;;;;;;;;;;;7.59;38.36;101420.03;4844600;29;20023;-75
2021/03/22 03:16:03;;;;;;;;;;;;;;;7.56;38.72;101425.31;4844673;29;19929;-75
2021/03/22 03:18:34;;;;;;;;;;;;;;;7.56;38.53;101420.94;4844171;29;19933;-75
2021/03/22 03:21:04;;;;;;;;;;;;;;;7.55;38.60;101423.56;4843645;29;20446;-75
2021/03/22 03:23:35;;;;;;;;;;;;;;;7.52;38.53;101424.47;4844240;29;19932;-75
2021/03/22 03:26:05;;;;;;;;;;;;;;;7.52;38.79;101437.63;4844269;29;19928;-75
2021/03/22 03:28:35;;;;;;;;;;;;;;;7.50;38.83;101433.25;4844731;29;19929;-75
2021/03/22 03:31:05;;;;;;;;;;;;;;;7.47;38.55;101436.75;4844246;29;20390;-75
2021/03/22 03:33:34;;;;;;;;;;;;;;;7.48;38.41;101438.53;4843913;29;19988;-75
2021/03/22 03:36:04;;;;;;;;;;;;;;;7.46;38.63;101440.31;4843687;29;19928;-75
2021/03/22 03:38:33;;;;;;;;;;;;;;;7.46;38.77;101437.66;4844013;29;20351;-75
2021/03/22 03:41:05;;;;;;;;;;;;;;;7.46;38.91;101443.78;4844332;29;20401;-75
2021/03/22 03:43:35;;;;;;;;;;;;;;;7.44;38.73;101442.91;4844140;29;19973;-75
2021/03/22 03:46:05;;;;;;;;;;;;;;;7.43;38.94;101445.56;4843950;29;20394;-75
2021/03/22 03:48:35;;;;;;;;;;;;;;;7.41;38.94;101444.69;4827313;29;20282;-75
2021/03/22 03:51:05;;;;;;;;;;;;;;;7.41;38.77;101449.97;4843489;29;20406;-75
2021/03/22 03:53:34;;;;;;;;;;;;;;;7.39;39.11;101462.25;4843996;29;20343;-75
2021/03/22 03:56:05;;;;;;;;;;;;;;;7.38;38.91;101465.75;4843861;29;20351;-75
2021/03/22 03:58:35;;;;;;;;;;;;;;;7.34;38.71;101467.53;4843645;29;20474;-75
2021/03/22 04:01:05;;;;;;;;;;;;;;;7.32;38.93;101477.19;4827169;29;20331;-75
2021/03/22 04:07:16;;;;;;;;;;;;;;;7.27;38.97;101484.19;4844183;29;20435;-75
2021/03/22 04:09:48;;;;;;;;;;;;;;;7.24;38.95;101478.97;4843941;29;19928;-75
2021/03/22 04:12:19;;;;;;;;;;;;;;;7.24;39.18;101478.97;4843723;29;19929;-75
2021/03/22 04:14:48;;;;;;;;;;;;;;;7.21;39.19;101481.56;4843171;29;20383;-75
2021/03/22 04:17:17;;;;;;;;;;;;;;;7.17;39.12;101469.31;4843146;29;19945;-75
2021/03/22 04:19:48;;;;;;;;;;;;;;;7.15;38.98;101474.56;4842904;29;19929;-75
2021/03/22 04:22:17;;;;;;;;;;;;;;;7.13;39.19;101478.94;4843332;29;19928;-75
2021/03/22 04:24:46;;;;;;;;;;;;;;;7.11;39.10;101480.72;4843327;29;20398;-75
2021/03/22 04:27:16;;;;;;;;;;;;;;;7.08;39.24;101478.13;4843208;29;19928;-75
2021/03/22 04:29:47;;;;;;;;;;;;;;;7.05;39.36;101481.63;4842796;29;20390;-74
2021/03/22 04:36:05;;;;;;;;;;;;;;;7.00;39.45;101478.13;4843428;29;19947;-75
2021/03/22 04:38:35;;;;;;;;;;;;;;;6.97;39.15;101484.25;4843249;29;19985;-75
2021/03/22 04:41:05;;;;;;;;;;;;;;;6.95;39.44;101485.13;4842985;29;19939;-75
2021/03/22 04:43:34;;;;;;;;;;;;;;;6.94;39.44;101476.34;4842665;29;19928;-74
2021/03/22 04:46:07;;;;;;;;;;;;;;;6.93;39.49;101472.00;4842689;29;20398;-75
2021/03/22 04:53:02;;;;;;;;;;;;;;;6.88;39.48;101471.09;4843054;29;20385;-75
2021/03/22 04:55:33;;;;;;;;;;;;;;;6.88;39.38;101475.47;4842692;29;20355;-75
2021/03/22 05:02:08;;;;;;;;;;;;;;;6.84;39.66;101490.38;4843083;29;19932;-75
2021/03/22 05:04:59;;;;;;;;;;;;;;;6.84;39.48;101494.75;4842355;29;20440;-75
2021/03/22 05:07:29;;;;;;;;;;;;;;;6.84;39.53;101500.03;4842872;29;19939;-75
2021/03/22 05:09:58;;;;;;;;;;;;;;;6.83;39.32;101504.44;4842202;29;20389;-74
2021/03/22 05:19:39;;;;;;;;;;;;;;;6.80;39.54;101505.31;4841969;29;19928;-75
2021/03/22 05:22:11;;;;;;;;;;;;;;;6.79;39.54;101506.16;4842183;29;20397;-75
2021/03/22 05:24:40;;;;;;;;;;;;;;;6.79;39.60;101508.78;4842098;29;20335;-75
2021/03/22 05:38:28;;;;;;;;;;;;;;;6.85;39.25;101513.16;4821432;29;20399;-75
2021/03/22 05:40:59;;;;;;;;;;;;;;;6.92;39.04;101499.16;4821370;29;20020;-75
2021/03/22 07:16:12;;;;;;;;;;;;;;;10.16;35.01;101573.66;5427056;23;19939;-74
2021/03/22 07:18:44;;;;;;;;;;;;;;;10.10;35.26;101577.25;4818599;29;20039;-78
2021/03/22 09:26:09;;;;;;;;;;;;;;;24.70;20.28;101525.69;5549703;23;19951;-75
2021/03/22 09:28:44;;;;;;;;;;;;;;;24.40;20.52;101524.28;4842161;29;20314;-75
2021/03/22 09:31:31;;;;;;;;;;;;;;;24.36;20.63;101522.75;4841966;29;20394;-75
2021/03/22 09:34:05;;;;;;;;;;;;;;;23.81;21.13;101523.09;4842223;29;19936;-74
2021/03/22 09:36:59;;;;;;;;;;;;;;;23.95;21.05;101523.97;4841562;29;20271;-75
2021/03/22 09:39:49;;;;;;;;;;;;;;;23.99;21.15;101529.03;4841664;29;19935;-74
2021/03/22 09:42:25;;;;;;;;;;;;;;;24.43;20.57;101528.63;4841923;29;20418;-75
2021/03/22 09:45:19;;;;;;;;;;;;;;;25.26;19.80;101532.31;4841834;29;20306;-75
2021/03/22 12:53:14;;;;;;;;;;;;;;;43.94;8.08;101482.00;5833357;23;19931;-79
2021/03/22 12:55:44;;;;;;;;;;;;;;;43.84;7.83;101481.78;4861484;29;20404;-79
2021/03/22 12:58:15;;;;;;;;;;;;;;;44.15;7.83;101474.88;4861305;29;20342;-80
2021/03/22 13:00:46;;;;;;;;;;;;;;;44.27;7.67;101475.69;4861314;29;20390;-79
2021/03/22 13:20:54;;;;;;;;;;;;;;;45.18;7.51;101459.03;4860962;29;20351;-78
2021/03/22 13:26:58;;;;;;;;;;;;;;;45.52;7.79;101456.16;4879880;29;19928;-78
2021/03/22 13:29:58;;;;;;;;;;;;;;;45.60;7.75;101438.94;4879608;29;19976;-78
2021/03/22 13:32:27;;;;;;;;;;;;;;;45.63;7.60;101444.00;4879355;29;20271;-78
2021/03/22 14:50:33;;;;;;;;;;;;;;;38.09;8.65;101434.84;4842031;29;19950;-74
2021/03/22 14:53:01;;;;;;;;;;;;;;;37.00;8.60;101437.25;4844239;29;19937;-82
2021/03/22 14:59:31;;;;;;;;;;;;;;;30.69;12.36;101435.13;4930906;24;19935;-82
2021/03/22 15:06:06;;;;;;;;;;;;;;;26.31;16.64;101431.84;4844374;29;19932;-81
2021/03/22 15:08:38;;;;;;;;;;;;;;;25.71;17.52;101434.88;4844909;29;19929;-79
2021/03/22 15:11:07;;;;;;;;;;;;;;;25.16;18.28;101435.59;4844863;29;20355;-78
2021/03/22 15:13:38;;;;;;;;;;;;;;;24.75;18.76;101431.53;4844562;29;19929;-79
2021/03/22 15:16:08;;;;;;;;;;;;;;;24.21;19.46;101435.56;4843813;29;20390;-78
2021/03/22 15:18:38;;;;;;;;;;;;;;;23.41;20.44;101434.09;4844316;29;19928;-78
2021/03/22 15:21:07;;;;;;;;;;;;;;;22.80;21.46;101434.69;4844067;29;19977;-78
2021/03/22 15:23:35;;;;;;;;;;;;;;;22.57;21.71;101430.00;4844629;29;20351;-80
2021/03/22 15:26:08;;;;;;;;;;;;;;;22.32;22.06;101431.59;4844480;29;19932;-79
2021/03/22 16:06:09;;;;;;;;;;;;;;;17.70;29.63;101425.94;5051328;24;19963;-81
2021/03/22 16:48:14;;;;;;;;;;;;;;;14.87;36.01;101430.09;4845943;29;19985;-74
2021/03/22 16:50:56;;;;;;;;;;;;;;;14.82;36.20;101434.72;4834172;29;19932;-74
2021/03/22 16:53:28;;;;;;;;;;;;;;;14.87;36.11;101435.44;4848744;29;20524;-74
2021/03/22 16:56:09;;;;;;;;;;;;;;;14.94;36.29;101433.44;4862636;29;20102;-76
2021/03/22 16:59:32;;;;;;;;;;;;;;;14.76;36.42;101435.81;4855603;29;19936;-74
2021/03/22 17:02:28;;;;;;;;;;;;;;;14.63;36.85;101426.47;4854625;29;19933;-73
2021/03/22 17:07:40;;;;;;;;;;;;;;;14.36;37.94;101415.78;4822068;29;20346;-75
2021/03/22 17:10:10;;;;;;;;;;;;;;;14.34;37.96;101422.09;4823014;29;20515;-74
2021/03/22 17:12:41;;;;;;;;;;;;;;;14.52;37.50;101423.28;4823989;29;20275;-77
2021/03/22 17:15:14;;;;;;;;;;;;;;;14.33;38.60;101418.56;4825165;29;20379;-79
2021/03/22 17:17:47;;;;;;;;;;;;;;;14.30;38.96;101420.44;4825484;29;20446;-81
2021/03/22 17:20:18;;;;;;;;;;;;;;;14.33;38.84;101428.31;4823944;29;19935;-79
2021/03/22 17:22:48;;;;;;;;;;;;;;;14.29;38.51;101427.56;4823523;29;20268;-78
2021/03/22 17:25:19;;;;;;;;;;;;;;;14.08;37.75;101419.34;4823820;29;20368;-78
2021/03/22 17:27:49;;;;;;;;;;;;;;;14.19;37.29;101434.97;4824291;29;20348;-78
2021/03/22 17:30:21;;;;;;;;;;;;;;;14.20;37.69;101441.19;4824206;29;20375;-78
2021/03/22 17:32:52;;;;;;;;;;;;;;;13.85;38.58;101438.66;4824518;29;19937;-78
2021/03/22 17:35:24;;;;;;;;;;;;;;;13.88;38.36;101435.94;4932391;24;20797;-79
2021/03/22 17:37:54;;;;;;;;;;;;;;;13.84;38.58;101431.63;4860964;29;19928;-74
2021/03/22 17:44:10;;;;;;;;;;;;;;;15.39;38.19;101430.06;4860694;29;20302;-74
2021/03/22 17:46:40;;;;;;;;;;;;;;;15.67;37.35;101436.16;4860341;29;19928;-74
2021/03/22 17:49:11;;;;;;;;;;;;;;;15.87;35.71;101438.09;4860421;29;19928;-74
2021/03/22 17:51:41;;;;;;;;;;;;;;;16.03;34.98;101436.53;4842861;29;20416;-75
2021/03/22 17:54:11;;;;;;;;;;;;;;;16.17;34.26;101429.81;4860288;29;20365;-75
2021/03/22 17:56:40;;;;;;;;;;;;;;;16.21;33.72;101434.97;4859944;29;19960;-75
2021/03/22 17:59:09;;;;;;;;;;;;;;;16.13;34.08;101433.50;4860371;29;19928;-74
2021/03/22 18:11:34;;;;;;;;;;;;;;;16.23;34.04;101443.78;5610668;23;19932;-79
2021/03/22 18:14:04;;;;;;;;;;;;;;;16.21;34.15;101445.63;4842270;29;20010;-80
2021/03/22 18:16:32;;;;;;;;;;;;;;;16.23;34.28;101448.25;4818486;29;19933;-78
2021/03/22 18:19:02;;;;;;;;;;;;;;;16.25;34.30;101447.25;4838690;29;19937;-76
2021/03/22 18:21:30;;;;;;;;;;;;;;;16.26;34.35;101443.66;4836702;29;19932;-77
2021/03/22 18:24:13;;;;;;;;;;;;;;;16.26;34.36;101442.78;4834564;29;19936;-81
2021/03/22 18:27:06;;;;;;;;;;;;;;;16.24;34.31;101444.63;4745993;30;19934;-80
2021/03/22 18:29:38;;;;;;;;;;;;;;;16.19;34.61;101439.50;4752083;30;19973;-78
2021/03/22 18:32:10;;;;;;;;;;;;;;;16.22;34.58;101441.19;4749119;30;19935;-80
2021/03/22 18:34:44;;;;;;;;;;;;;;;16.19;34.71;101441.28;4746820;30;20478;-80
2021/03/22 18:37:13;;;;;;;;;;;;;;;16.14;34.62;101451.28;4739135;30;19984;-80
2021/03/22 18:39:43;;;;;;;;;;;;;;;16.18;34.56;101453.78;4748894;30;20436;-79
2021/03/22 18:42:26;;;;;;;;;;;;;;;16.17;34.58;101443.16;4754224;30;19930;-78
2021/03/22 18:45:03;;;;;;;;;;;;;;;16.14;34.76;101460.16;4740273;30;19934;-79
2021/03/22 18:47:35;;;;;;;;;;;;;;;16.15;34.77;101463.69;4733461;30;20087;-78
2021/03/22 18:50:29;;;;;;;;;;;;;;;16.14;34.90;101464.63;4748887;29;19928;-79
2021/03/22 18:53:16;;;;;;;;;;;;;;;16.11;35.07;101465.59;4824709;29;19971;-83
2021/03/22 18:55:59;;;;;;;;;;;;;;;16.10;34.94;101464.75;4847671;29;19972;-79
2021/03/22 18:58:36;;;;;;;;;;;;;;;16.14;34.92;101467.28;4824748;29;20026;-78
2021/03/22 19:01:14;;;;;;;;;;;;;;;16.14;35.06;101468.19;4839093;29;19932;-77
2021/03/22 19:03:47;;;;;;;;;;;;;;;16.13;34.94;101466.44;4821611;29;19960;-80
2021/03/22 19:06:15;;;;;;;;;;;;;;;16.15;34.93;101469.03;4836669;29;19932;-77
2021/03/22 19:08:46;;;;;;;;;;;;;;;16.13;34.94;101468.22;4845347;29;19932;-77
2021/03/22 19:11:14;;;;;;;;;;;;;;;15.99;35.35;101471.44;4831186;29;19991;-77
2021/03/22 19:13:43;;;;;;;;;;;;;;;15.93;35.64;101469.88;4843313;29;19932;-77
2021/03/22 19:16:10;;;;;;;;;;;;;;;15.96;35.57;101468.91;4830775;29;19960;-77
2021/03/22 19:18:38;;;;;;;;;;;;;;;15.96;35.48;101476.91;4824969;29;20293;-78
2021/03/22 19:21:15;;;;;;;;;;;;;;;15.88;35.56;101480.72;4829170;29;19981;-77
2021/03/22 19:23:54;;;;;;;;;;;;;;;15.89;35.69;101481.56;4833354;29;19932;-78
2021/03/22 19:26:40;;;;;;;;;;;;;;;15.88;35.96;101477.19;4846887;29;19936;-79
2021/03/22 19:29:16;;;;;;;;;;;;;;;15.90;35.91;101478.88;4843421;29;19948;-78
2021/03/22 19:31:46;;;;;;;;;;;;;;;15.88;35.70;101477.19;4838955;29;19968;-79
2021/03/22 19:34:39;;;;;;;;;;;;;;;15.85;35.84;101474.63;4842695;29;19956;-79
2021/03/22 19:40:11;;;;;;;;;;;;;;;15.77;36.07;101488.22;4834699;29;19929;-77
2021/03/22 19:42:39;;;;;;;;;;;;;;;15.81;35.88;101492.56;4824615;29;19937;-77
2021/03/22 19:45:12;;;;;;;;;;;;;;;15.78;36.19;101481.94;4839050;29;19944;-78
2021/03/22 19:47:53;;;;;;;;;;;;;;;15.74;36.21;101475.00;4831347;29;19971;-78
2021/03/22 19:50:29;;;;;;;;;;;;;;;15.68;36.21;101476.09;4827840;29;19936;-77
2021/03/22 19:53:05;;;;;;;;;;;;;;;15.66;36.38;101475.28;4846999;29;19933;-77
2021/03/22 19:55:37;;;;;;;;;;;;;;;15.70;36.22;101478.72;4849203;29;20035;-78
2021/03/22 19:58:08;;;;;;;;;;;;;;;15.69;36.38;101477.84;4838779;29;19932;-78
2021/03/22 20:00:42;;;;;;;;;;;;;;;15.66;36.23;101480.63;4823350;29;19933;-78
2021/03/22 20:03:11;;;;;;;;;;;;;;;15.60;36.39;101480.84;4824633;29;19938;-78
2021/03/22 20:05:50;;;;;;;;;;;;;;;15.65;36.30;101488.69;4831135;29;19928;-80
2021/03/22 20:08:29;;;;;;;;;;;;;;;15.57;36.38;101489.81;4826270;29;19936;-78
2021/03/22 20:11:17;;;;;;;;;;;;;;;15.56;36.76;101482.75;4823249;29;19957;-79
2021/03/22 20:17:15;;;;;;;;;;;;;;;15.52;36.50;101485.59;4822680;29;19933;-80
2021/03/22 20:23:45;;;;;;;;;;;;;;;15.44;36.85;101485.84;4799548;29;20488;-80
2021/03/22 20:26:33;;;;;;;;;;;;;;;15.38;36.88;101480.78;4839045;29;20394;-79
2021/03/22 20:32:39;;;;;;;;;;;;;;;15.34;36.93;101481.78;4825549;29;20430;-81
2021/03/22 20:35:23;;;;;;;;;;;;;;;15.31;37.06;101484.56;4824235;29;19961;-80
2021/03/22 20:38:10;;;;;;;;;;;;;;;15.29;37.23;101489.97;4830198;29;20440;-79
2021/03/22 20:41:03;;;;;;;;;;;;;;;15.26;37.08;101488.25;4840107;29;19936;-80
2021/03/22 20:43:40;;;;;;;;;;;;;;;15.23;37.32;101491.06;4844664;29;19996;-80
2021/03/22 20:46:09;;;;;;;;;;;;;;;15.21;37.15;101487.56;4828419;29;19953;-79
2021/03/22 20:49:05;;;;;;;;;;;;;;;15.17;37.09;101488.59;4825395;29;20320;-79
2021/03/22 20:51:38;;;;;;;;;;;;;;;15.14;37.47;101486.03;4840386;29;20023;-79
2021/03/22 20:54:09;;;;;;;;;;;;;;;15.12;37.43;101490.53;4822402;29;19933;-80
2021/03/22 20:56:40;;;;;;;;;;;;;;;15.10;37.31;101495.03;4834516;29;20000;-79
2021/03/22 20:59:11;;;;;;;;;;;;;;;15.08;37.25;101489.78;4841384;29;19944;-79
2021/03/22 21:01:46;;;;;;;;;;;;;;;15.04;37.47;101490.81;4829024;29;19931;-79
2021/03/22 21:04:34;;;;;;;;;;;;;;;15.01;37.49;101490.03;4824274;29;19940;-77
2021/03/22 21:07:05;;;;;;;;;;;;;;;15.00;37.45;101498.97;4819899;29;19968;-79
2021/03/22 21:09:37;;;;;;;;;;;;;;;14.98;37.78;101492.81;4823521;29;19940;-78
2021/03/22 21:12:09;;;;;;;;;;;;;;;14.96;37.65;101494.63;4824300;29;19929;-76
2021/03/22 21:14:39;;;;;;;;;;;;;;;14.93;37.68;101496.50;4826852;29;19996;-78
2021/03/22 21:17:06;;;;;;;;;;;;;;;14.90;37.80;101493.91;4841500;29;20028;-78
2021/03/22 21:19:36;;;;;;;;;;;;;;;14.88;37.96;101489.56;4814750;29;19933;-79
2021/03/22 21:22:08;;;;;;;;;;;;;;;14.86;37.93;101492.28;4841602;29;19947;-78
2021/03/22 21:24:42;;;;;;;;;;;;;;;14.84;37.86;101483.50;4836506;29;19939;-79
2021/03/22 21:27:16;;;;;;;;;;;;;;;14.81;37.76;101488.91;4823915;29;19992;-77
2021/03/22 21:29:45;;;;;;;;;;;;;;;14.81;38.12;101491.56;4823402;29;20305;-79
2021/03/22 21:32:26;;;;;;;;;;;;;;;14.76;38.17;101494.41;4812775;29;19944;-83
2021/03/22 21:35:17;;;;;;;;;;;;;;;14.75;37.94;101495.31;4824925;29;20400;-81
2021/03/22 21:37:49;;;;;;;;;;;;;;;14.73;38.26;101493.63;4832358;29;19937;-81
2021/03/22 21:40:52;;;;;;;;;;;;;;;14.70;37.87;101496.41;4838067;29;19996;-80
2021/03/22 21:46:57;;;;;;;;;;;;;;;14.64;38.15;101492.13;4751430;30;19933;-79
2021/03/22 21:49:37;;;;;;;;;;;;;;;14.59;38.34;101483.38;4762758;30;20068;-83
2021/03/22 21:52:14;;;;;;;;;;;;;;;14.57;38.18;101487.91;4738988;30;19972;-81
2021/03/22 21:54:49;;;;;;;;;;;;;;;14.56;38.24;101488.81;4740659;30;19934;-81
2021/03/22 21:57:23;;;;;;;;;;;;;;;14.54;38.21;101485.34;4759700;30;19945;-84
2021/03/22 21:59:53;;;;;;;;;;;;;;;14.53;38.53;101486.25;4756396;30;19934;-79
2021/03/22 22:02:28;;;;;;;;;;;;;;;14.50;38.53;101492.56;4839235;29;19935;-80
2021/03/22 22:05:01;;;;;;;;;;;;;;;14.48;38.53;101496.19;4826234;29;19975;-82
2021/03/22 22:07:30;;;;;;;;;;;;;;;14.45;38.25;101490.03;4836980;29;19954;-80
2021/03/22 22:09:58;;;;;;;;;;;;;;;14.44;38.48;101485.66;4842894;29;19936;-79
2021/03/22 22:12:29;;;;;;;;;;;;;;;14.42;38.73;101489.28;4824206;29;20651;-80
2021/03/22 22:14:58;;;;;;;;;;;;;;;14.39;38.35;101492.00;4835300;29;20489;-80
2021/03/22 22:17:29;;;;;;;;;;;;;;;14.35;38.80;101496.56;4822307;29;19933;-81
2021/03/22 22:20:00;;;;;;;;;;;;;;;14.34;38.61;101494.84;4819984;29;19949;-81
2021/03/22 22:22:27;;;;;;;;;;;;;;;14.33;38.82;101497.53;4821177;29;19968;-77
2021/03/22 22:24:59;;;;;;;;;;;;;;;14.32;38.67;101498.47;4841849;29;19934;-82
2021/03/22 22:27:27;;;;;;;;;;;;;;;14.27;38.68;101498.59;4819517;29;19958;-79
2021/03/22 22:29:56;;;;;;;;;;;;;;;14.26;38.93;101500.41;4807000;29;19937;-80
2021/03/22 22:32:25;;;;;;;;;;;;;;;14.25;38.69;101500.44;4803380;29;20382;-79
2021/03/22 22:34:54;;;;;;;;;;;;;;;14.22;38.86;101504.06;4817538;29;19937;-81
2021/03/22 22:37:22;;;;;;;;;;;;;;;14.20;38.94;101502.38;4841882;29;20375;-81
2021/03/22 22:39:50;;;;;;;;;;;;;;;14.18;39.10;101506.84;4807134;29;19933;-80
2021/03/22 22:42:22;;;;;;;;;;;;;;;14.15;38.74;101505.16;4826411;29;19937;-78
2021/03/22 22:44:51;;;;;;;;;;;;;;;14.13;38.89;101501.69;4832428;29;19933;-81
2021/03/22 22:47:19;;;;;;;;;;;;;;;14.13;38.96;101508.78;4830638;29;20391;-81
2021/03/22 22:49:47;;;;;;;;;;;;;;;14.10;39.17;101505.31;4823635;29;20304;-79
2021/03/22 22:52:25;;;;;;;;;;;;;;;14.08;38.98;101514.25;4818593;29;20000;-81
2021/03/22 22:54:54;;;;;;;;;;;;;;;14.06;39.09;101511.63;4838534;29;20152;-80
2021/03/22 22:57:25;;;;;;;;;;;;;;;14.03;39.20;101509.06;4825800;29;19952;-80
2021/03/22 22:59:53;;;;;;;;;;;;;;;14.03;39.25;101514.38;4824709;29;19933;-81
2021/03/22 23:02:24;;;;;;;;;;;;;;;14.00;39.33;101511.81;4825668;29;20013;-81
2021/03/22 23:04:52;;;;;;;;;;;;;;;13.97;39.40;101503.91;4819392;29;19933;-80
2021/03/22 23:07:22;;;;;;;;;;;;;;;13.96;39.33;101515.50;4824336;29;19928;-81
2021/03/22 23:09:51;;;;;;;;;;;;;;;13.94;39.18;101523.50;4825953;29;20023;-82
2021/03/22 23:12:27;;;;;;;;;;;;;;;13.93;39.15;101518.22;4839052;29;20485;-82
2021/03/22 23:14:59;;;;;;;;;;;;;;;13.91;39.13;101517.41;4828809;29;20309;-82
2021/03/22 23:17:29;;;;;;;;;;;;;;;13.88;39.19;101518.38;4823219;29;19996;-81
2021/03/22 23:19:56;;;;;;;;;;;;;;;13.86;39.38;101522.00;4826657;29;20143;-82
2021/03/22 23:22:28;;;;;;;;;;;;;;;13.83;39.61;101520.28;4811220;29;19932;-82
2021/03/22 23:24:56;;;;;;;;;;;;;;;13.82;39.44;101525.66;4830644;29;19964;-80
2021/03/22 23:27:24;;;;;;;;;;;;;;;13.78;39.49;101520.41;4813253;29;19933;-78
2021/03/22 23:29:55;;;;;;;;;;;;;;;13.76;39.38;101514.28;4825231;29;19962;-81
2021/03/22 23:32:30;;;;;;;;;;;;;;;13.75;39.71;101524.97;4835009;29;19933;-82
2021/03/22 23:35:19;;;;;;;;;;;;;;;13.75;39.43;101523.16;4829533;29;20469;-82
2021/03/22 23:37:52;;;;;;;;;;;;;;;13.71;39.82;101525.94;4831860;29;20567;-82
2021/03/22 23:40:26;;;;;;;;;;;;;;;13.71;39.66;101539.25;4832747;29;19933;-82
2021/03/22 23:43:00;;;;;;;;;;;;;;;13.68;39.57;101539.34;4828740;29;19932;-82
2021/03/22 23:45:32;;;;;;;;;;;;;;;13.66;39.92;101539.38;4838607;29;19936;-82
2021/03/22 23:48:03;;;;;;;;;;;;;;;13.63;39.65;101547.41;4823133;29;20409;-81
2021/03/22 23:50:39;;;;;;;;;;;;;;;13.62;39.93;101548.34;4831724;29;19932;-82
2021/03/22 23:53:11;;;;;;;;;;;;;;;13.60;39.98;101548.41;4829769;29;19968;-82
2021/03/22 23:55:39;;;;;;;;;;;;;;;13.58;40.07;101544.91;4828340;29;19936;-83
2021/03/22 23:58:12;;;;;;;;;;;;;;;13.56;39.97;101552.03;4818500;29;19939;-83
